Fort Lauderdale, FL

10:50 PM EST on December 26, 2014 (GMT -0500)
APRSWXNET Fort Lauderdale FL US | Change Station
CLOSE
Current Station
Personal Weather Station
Location: Fort Lauderdale, FL
Elevation: 393 ft
Nearby Weather Stations

Elev 393 ft 26.10 °N, 80.11 °W | Updated 143 days ago

Partly Cloudy
Partly Cloudy
72 °F
Feels Like 72 °F
N
5
Wind Variable Wind from East
Gusts 6 mph

Today
High -- | Low -- °F
--% Chance of Precip.
Yesterday
High -- | Low -- °F
Precip. -- in
7:05 AM 5:36 PM
Waxing Crescent, 32% visible
Pressure 30.18 in
Visibility 8.0 miles
Clouds Mostly Cloudy 7000 ft
Overcast 8000 ft
Dew Point 68 °F
Humidity 89%
Rainfall -999.00 in
Snow Depth Not available.
UV 0 out of 12
Pollen 3.00 out of 12
Air Quality Not available.
Flu Activity Not available.
METAR KFLL 270253Z 35004KT 8SM BKN070 OVC080 22/22 A3018 RMK AO2 SLP220 T02220222 53009

More Conditions Fewer Conditions

Pressure 30.18 in
Visibility 8.0 miles
Clouds Mostly Cloudy 7000 ft
Overcast 8000 ft
Dew Point 68 °F
Humidity 89%
Rainfall -999.00 in
Snow Depth Not available.
UV 0 out of 12
Pollen 3.00 out of 12
Air Quality Not available.
Flu Activity Not available.
METAR KFLL 270253Z 35004KT 8SM BKN070 OVC080 22/22 A3018 RMK AO2 SLP220 T02220222 53009

More Conditions Fewer Conditions

10-Day Weather Forecast

Almanac

Astronomy

Dec. 26, 2014 Rise Set
Actual Time
Civil Twilight
Nautical Twilight
Astronomical Twilight
Moon
Length of Visible Light
Length of Day
Tomorrow will be .
, % of the Moon is Illuminated

Today's Extremes

State Highs State Lows

Community

WunderPhotos

Upload Photos

1,780,836 photos uploaded!

WunderBlogs® & News

Nearby

Air Quality

  Air Quality AQ Index Pollutant
Not available.

Snow Depth

Station Depth Elevation

Earthquake Activity

City Distance Mag. Time & Date
Minimum magnitude displayed is 2.5.

Coastal Water Temperatures

Place Temperature

Nearby Weather Stations